createdAt,value
2023-05-13T00:00:05.905Z,8.58
2023-05-13T00:01:37.264Z,8.84
2023-05-13T00:03:09.087Z,9.04
2023-05-13T00:04:40.653Z,8.86
2023-05-13T00:06:12.255Z,8.32
2023-05-13T00:07:44.057Z,9.17
2023-05-13T00:09:15.531Z,9.44
2023-05-13T00:10:46.967Z,9.21
2023-05-13T00:12:18.530Z,9.26
2023-05-13T00:13:50.038Z,9.25
2023-05-13T00:15:21.828Z,9.30
2023-05-13T00:16:53.163Z,9.20
2023-05-13T00:18:24.640Z,9.38
2023-05-13T00:19:56.214Z,9.63
2023-05-13T00:21:27.720Z,9.28
2023-05-13T00:22:59.097Z,9.59
2023-05-13T00:24:30.684Z,9.52
2023-05-13T00:26:02.099Z,9.27
2023-05-13T00:27:33.381Z,9.92
2023-05-13T00:29:04.769Z,9.74
2023-05-13T00:30:36.349Z,10.11
2023-05-13T00:32:07.610Z,10.39
2023-05-13T00:33:39.047Z,11.17
2023-05-13T00:35:10.862Z,10.19
2023-05-13T00:36:42.222Z,9.92
2023-05-13T00:38:14.206Z,9.84
2023-05-13T00:39:45.696Z,9.96
2023-05-13T00:41:17.085Z,9.78
2023-05-13T00:42:48.517Z,9.75
2023-05-13T00:44:20.173Z,10.27
2023-05-13T00:45:51.602Z,10.58
2023-05-13T00:47:23.274Z,10.18
2023-05-13T00:48:54.658Z,10.28
2023-05-13T00:50:26.179Z,10.37
2023-05-13T00:51:57.770Z,10.27
2023-05-13T00:53:29.434Z,9.71
2023-05-13T00:55:00.782Z,9.32
2023-05-13T00:56:32.609Z,9.60
2023-05-13T00:58:04.166Z,9.54
2023-05-13T00:59:35.685Z,9.48
2023-05-13T01:01:06.959Z,9.32
2023-05-13T01:02:38.545Z,9.23
2023-05-13T01:04:10.023Z,9.57
2023-05-13T01:05:41.465Z,9.36
2023-05-13T01:07:12.912Z,9.39
2023-05-13T01:08:44.302Z,9.85
2023-05-13T01:10:15.792Z,9.98
2023-05-13T01:11:47.238Z,10.16
2023-05-13T01:13:18.632Z,10.18
2023-05-13T01:14:50.117Z,9.77
2023-05-13T01:16:21.829Z,10.07
2023-05-13T01:17:53.341Z,10.43
2023-05-13T01:19:24.797Z,10.26
2023-05-13T01:20:56.545Z,10.43
2023-05-13T01:22:28.130Z,10.98
2023-05-13T01:23:59.610Z,10.90
2023-05-13T01:25:31.188Z,11.47
2023-05-13T01:27:02.691Z,11.30
2023-05-13T01:28:34.312Z,10.86
2023-05-13T01:30:05.581Z,10.71
2023-05-13T01:31:37.031Z,10.16
2023-05-13T01:33:09.116Z,11.10
2023-05-13T01:34:40.515Z,10.92
2023-05-13T01:36:12.068Z,11.37
2023-05-13T01:37:44.681Z,10.78
2023-05-13T01:39:15.994Z,10.44
2023-05-13T01:40:47.375Z,10.15
2023-05-13T01:42:18.691Z,9.97
2023-05-13T01:43:50.065Z,10.10
2023-05-13T01:45:21.377Z,10.20
2023-05-13T01:46:52.856Z,10.40
2023-05-13T01:48:24.370Z,10.09
2023-05-13T01:49:56.031Z,10.09
2023-05-13T01:51:27.362Z,10.92
2023-05-13T01:52:58.656Z,10.65
2023-05-13T01:54:30.310Z,10.31
2023-05-13T01:56:01.766Z,10.61
2023-05-13T01:57:33.357Z,10.29
2023-05-13T01:59:04.684Z,10.50
2023-05-13T02:00:36.182Z,10.73
2023-05-13T02:02:07.781Z,10.89
2023-05-13T02:03:39.530Z,11.20
2023-05-13T02:05:11.413Z,11.06
2023-05-13T02:06:42.832Z,11.18
2023-05-13T02:08:14.501Z,11.60
2023-05-13T02:09:45.850Z,11.37
2023-05-13T02:11:17.183Z,11.94
2023-05-13T02:12:48.581Z,11.34
2023-05-13T02:14:19.914Z,11.44
2023-05-13T02:15:51.359Z,11.55
2023-05-13T02:17:22.947Z,11.56
2023-05-13T02:18:54.677Z,11.28
2023-05-13T02:20:26.217Z,11.41
2023-05-13T02:21:57.569Z,11.79
2023-05-13T02:23:28.898Z,11.93
2023-05-13T02:25:00.463Z,12.05
2023-05-13T02:26:31.824Z,11.94
2023-05-13T02:28:03.333Z,12.08
2023-05-13T02:29:34.903Z,12.40
2023-05-13T02:31:06.166Z,12.36
2023-05-13T02:32:37.694Z,12.38
2023-05-13T02:34:09.024Z,12.73
2023-05-13T02:35:40.308Z,12.46
2023-05-13T02:37:11.559Z,12.92
2023-05-13T02:38:43.023Z,12.62
2023-05-13T02:40:14.461Z,12.79
2023-05-13T02:41:45.822Z,12.93
2023-05-13T02:43:17.241Z,13.13
2023-05-13T02:44:48.803Z,12.88
2023-05-13T02:46:20.405Z,13.04
2023-05-13T02:47:51.904Z,13.13
2023-05-13T02:49:23.327Z,11.89
2023-05-13T02:50:54.649Z,12.55
2023-05-13T02:52:26.392Z,12.64
2023-05-13T02:53:57.802Z,12.76
2023-05-13T02:55:29.189Z,12.24
2023-05-13T02:57:00.580Z,12.78
2023-05-13T02:58:31.951Z,12.65
2023-05-13T03:00:04.089Z,12.28
2023-05-13T03:01:35.560Z,12.23
2023-05-13T03:03:07.055Z,12.57
2023-05-13T03:04:38.573Z,12.58
2023-05-13T03:06:09.939Z,12.82
2023-05-13T03:07:41.336Z,12.56
2023-05-13T03:09:12.795Z,12.52
2023-05-13T03:10:44.242Z,12.36
2023-05-13T03:12:15.737Z,12.31
2023-05-13T03:13:47.063Z,12.02
2023-05-13T03:15:18.343Z,12.07
2023-05-13T03:16:49.695Z,12.09
2023-05-13T03:18:21.149Z,11.91
2023-05-13T03:19:52.500Z,11.58
2023-05-13T03:21:24.166Z,11.63
2023-05-13T03:22:55.623Z,11.93
2023-05-13T03:24:27.128Z,11.74
2023-05-13T03:25:58.576Z,10.79
2023-05-13T03:27:29.858Z,10.74
2023-05-13T03:29:01.166Z,11.51
2023-05-13T03:30:32.453Z,11.32
2023-05-13T03:32:03.821Z,11.35
2023-05-13T03:33:35.289Z,11.16
2023-05-13T03:35:06.703Z,10.85
2023-05-13T03:36:37.966Z,11.23
2023-05-13T03:38:09.268Z,11.17
2023-05-13T03:39:40.776Z,11.13
2023-05-13T03:41:12.170Z,11.21
2023-05-13T03:42:43.659Z,11.31
2023-05-13T03:44:15.376Z,11.41
2023-05-13T03:45:46.703Z,11.86
2023-05-13T03:47:18.043Z,12.00
2023-05-13T03:48:49.382Z,12.26
2023-05-13T03:50:21.092Z,12.08
2023-05-13T03:51:52.641Z,11.37
2023-05-13T03:53:23.925Z,11.60
2023-05-13T03:54:55.280Z,11.99
2023-05-13T03:56:26.775Z,12.46
2023-05-13T03:57:58.159Z,11.86
2023-05-13T03:59:29.616Z,11.70
2023-05-13T04:01:00.917Z,11.59
2023-05-13T04:02:32.402Z,11.71
2023-05-13T04:04:04.265Z,11.41
2023-05-13T04:05:35.771Z,11.52
2023-05-13T04:07:07.117Z,11.29
2023-05-13T04:08:38.471Z,12.05
2023-05-13T04:10:10.522Z,12.11
2023-05-13T04:11:43.055Z,12.74
2023-05-13T04:13:14.332Z,12.26
2023-05-13T04:14:45.618Z,12.94
2023-05-13T04:16:17.134Z,13.04
2023-05-13T04:17:48.578Z,13.60
2023-05-13T04:19:20.068Z,13.32
2023-05-13T04:20:51.574Z,13.14
2023-05-13T04:22:22.955Z,12.39
2023-05-13T04:23:54.430Z,12.10
2023-05-13T04:25:25.934Z,12.74
2023-05-13T04:26:58.534Z,12.93
2023-05-13T04:28:30.799Z,13.40
2023-05-13T04:30:03.312Z,13.34
2023-05-13T04:31:34.989Z,14.07
2023-05-13T04:33:06.481Z,14.42
2023-05-13T04:34:38.114Z,13.94
2023-05-13T04:36:09.535Z,14.15
2023-05-13T04:37:40.949Z,13.78
2023-05-13T04:39:12.202Z,13.77
2023-05-13T04:40:43.493Z,13.31
2023-05-13T04:42:14.864Z,13.70
2023-05-13T04:43:46.122Z,12.89
2023-05-13T04:45:17.396Z,13.39
2023-05-13T04:46:48.779Z,12.45
2023-05-13T04:48:20.337Z,12.75
2023-05-13T04:49:51.625Z,13.93
2023-05-13T04:51:23.683Z,13.61
2023-05-13T04:52:55.402Z,13.65
2023-05-13T04:54:26.759Z,13.85
2023-05-13T04:55:58.061Z,13.73
2023-05-13T04:57:29.464Z,13.81
2023-05-13T04:59:01.014Z,13.31
2023-05-13T05:00:32.807Z,13.54
2023-05-13T05:02:04.407Z,13.37
2023-05-13T05:03:35.916Z,13.82
2023-05-13T05:05:07.257Z,12.82
2023-05-13T05:06:38.687Z,12.44
2023-05-13T05:08:10.069Z,12.24
2023-05-13T05:09:41.377Z,12.04
2023-05-13T05:11:12.670Z,11.71
2023-05-13T05:12:44.002Z,11.16
2023-05-13T05:14:15.665Z,10.51
2023-05-13T05:15:46.995Z,9.77
2023-05-13T05:17:18.419Z,9.91
2023-05-13T05:18:49.917Z,10.84
2023-05-13T05:20:21.593Z,11.29
2023-05-13T05:21:53.078Z,11.36
2023-05-13T05:23:24.718Z,11.48
2023-05-13T05:24:56.073Z,11.03
2023-05-13T05:26:27.461Z,10.49
2023-05-13T05:27:58.780Z,10.86
2023-05-13T05:29:30.518Z,10.66
2023-05-13T05:31:01.995Z,10.61
2023-05-13T05:32:33.402Z,10.90
2023-05-13T05:34:04.733Z,11.13
2023-05-13T05:35:36.115Z,10.62
2023-05-13T05:37:07.498Z,10.88
2023-05-13T05:38:38.803Z,11.49
2023-05-13T05:40:10.062Z,11.12
2023-05-13T05:41:41.405Z,11.19
2023-05-13T05:43:12.785Z,11.81
2023-05-13T05:44:44.188Z,12.70
2023-05-13T05:46:15.592Z,12.47
2023-05-13T05:47:47.114Z,12.33
2023-05-13T05:49:18.758Z,12.38
2023-05-13T05:50:50.155Z,12.76
2023-05-13T05:52:21.463Z,12.62
2023-05-13T05:53:53.410Z,12.64
2023-05-13T05:55:24.850Z,12.80
2023-05-13T05:56:56.904Z,12.61
2023-05-13T05:58:28.333Z,12.34
2023-05-13T05:59:59.712Z,12.38
2023-05-13T06:01:31.117Z,12.43
2023-05-13T06:03:02.656Z,12.74
2023-05-13T06:04:34.221Z,12.70
2023-05-13T06:06:05.811Z,12.97
2023-05-13T06:07:37.321Z,12.48
2023-05-13T06:09:08.633Z,12.09
2023-05-13T06:10:40.042Z,11.96
2023-05-13T06:12:11.413Z,11.42
2023-05-13T06:13:42.875Z,11.43
2023-05-13T06:15:14.238Z,11.49
2023-05-13T06:16:45.541Z,11.79
2023-05-13T06:18:16.956Z,11.99
2023-05-13T06:19:48.337Z,11.78
2023-05-13T06:21:19.650Z,11.12
2023-05-13T06:22:50.964Z,10.81
2023-05-13T06:24:22.445Z,10.70
2023-05-13T06:25:54.375Z,11.70
2023-05-13T06:27:25.791Z,12.42
2023-05-13T06:28:57.154Z,12.08
2023-05-13T06:30:28.571Z,12.38
2023-05-13T06:32:00.130Z,12.50
2023-05-13T06:33:31.503Z,12.53
2023-05-13T06:35:02.875Z,12.98
2023-05-13T06:36:34.234Z,12.23
2023-05-13T06:38:05.725Z,13.21
2023-05-13T06:39:37.068Z,12.78
2023-05-13T06:41:08.405Z,12.69
2023-05-13T06:42:39.816Z,12.78
2023-05-13T06:44:11.263Z,12.86
2023-05-13T06:45:42.817Z,12.75
2023-05-13T06:47:14.181Z,12.67
2023-05-13T06:48:45.664Z,12.01
2023-05-13T06:50:16.977Z,12.10
2023-05-13T06:51:48.308Z,11.69
2023-05-13T06:53:19.625Z,12.64
2023-05-13T06:54:51.052Z,12.38
2023-05-13T06:56:22.980Z,12.28
2023-05-13T06:57:54.417Z,12.15
2023-05-13T06:59:26.028Z,11.10
2023-05-13T07:00:57.479Z,11.18
2023-05-13T07:02:29.229Z,11.24
2023-05-13T07:04:00.693Z,10.68
2023-05-13T07:05:32.103Z,10.45
2023-05-13T07:07:03.376Z,10.57
2023-05-13T07:08:34.873Z,11.13
2023-05-13T07:10:06.352Z,10.33
2023-05-13T07:11:38.105Z,10.51
2023-05-13T07:13:09.750Z,10.09
2023-05-13T07:14:41.260Z,10.08
2023-05-13T07:16:12.646Z,9.44
2023-05-13T07:17:44.230Z,9.06
2023-05-13T07:19:15.753Z,9.40
2023-05-13T07:20:47.153Z,9.62
2023-05-13T07:22:18.731Z,9.43
2023-05-13T07:23:50.235Z,9.75
2023-05-13T07:25:21.923Z,9.74
2023-05-13T07:26:53.225Z,9.63
2023-05-13T07:28:24.566Z,10.18
2023-05-13T07:29:56.070Z,9.90
2023-05-13T07:31:27.565Z,10.51
2023-05-13T07:32:59.101Z,10.39
2023-05-13T07:34:30.647Z,10.71
2023-05-13T07:36:02.032Z,10.29
2023-05-13T07:37:33.494Z,10.74
2023-05-13T07:39:04.800Z,11.15
2023-05-13T07:40:36.326Z,11.01
2023-05-13T07:42:07.766Z,11.31
2023-05-13T07:43:39.181Z,11.25
2023-05-13T07:45:10.871Z,10.65
2023-05-13T07:46:42.252Z,10.93
2023-05-13T07:48:13.643Z,11.00
2023-05-13T07:49:44.964Z,10.75
2023-05-13T07:51:16.291Z,10.90
2023-05-13T07:52:47.598Z,10.60
2023-05-13T07:54:18.940Z,10.64
2023-05-13T07:55:50.255Z,10.25
2023-05-13T07:57:21.788Z,10.19
2023-05-13T07:58:53.202Z,10.18
2023-05-13T08:00:34.555Z,10.26
2023-05-13T08:02:05.969Z,9.73
2023-05-13T08:03:37.541Z,10.01
2023-05-13T08:05:09.155Z,10.04
2023-05-13T08:06:40.664Z,9.86
2023-05-13T08:08:12.073Z,9.28
2023-05-13T08:09:43.410Z,9.05
2023-05-13T08:11:14.871Z,8.94
2023-05-13T08:12:46.670Z,9.37
2023-05-13T08:14:23.426Z,9.61
2023-05-13T08:15:54.900Z,9.12
2023-05-13T08:17:26.443Z,9.36
2023-05-13T08:18:57.854Z,8.66
2023-05-13T08:20:29.506Z,8.78
2023-05-13T08:22:01.033Z,8.86
2023-05-13T08:23:44.268Z,8.76
2023-05-13T08:25:17.183Z,8.28
2023-05-13T08:26:48.649Z,8.62
2023-05-13T08:28:19.974Z,8.48
2023-05-13T08:29:51.509Z,7.84
2023-05-13T08:31:23.096Z,7.62
2023-05-13T08:32:59.778Z,7.45
2023-05-13T08:34:31.356Z,7.29
2023-05-13T08:36:03.164Z,7.35
2023-05-13T08:37:34.714Z,7.48
2023-05-13T08:39:06.246Z,7.42
2023-05-13T08:40:37.786Z,7.22
2023-05-13T08:42:09.076Z,7.05
2023-05-13T08:43:40.477Z,6.72
2023-05-13T08:45:12.076Z,6.80
2023-05-13T08:46:48.557Z,6.63
2023-05-13T08:48:20.032Z,6.43
2023-05-13T08:49:51.444Z,6.57
2023-05-13T08:51:27.818Z,6.45
2023-05-13T08:52:59.195Z,6.33
2023-05-13T08:54:30.614Z,5.92
2023-05-13T08:56:02.121Z,5.97
2023-05-13T08:57:33.903Z,5.89
2023-05-13T08:59:05.326Z,6.26
2023-05-13T09:00:36.883Z,6.10
2023-05-13T09:02:08.182Z,5.76
2023-05-13T09:03:39.663Z,5.88
2023-05-13T09:05:11.054Z,5.66
2023-05-13T09:06:42.684Z,5.64
2023-05-13T09:08:14.115Z,5.43
2023-05-13T09:09:45.578Z,5.34
2023-05-13T09:11:16.908Z,5.10
2023-05-13T09:12:49.404Z,5.17
2023-05-13T09:14:20.817Z,4.70
2023-05-13T09:15:52.321Z,4.74
2023-05-13T09:17:23.841Z,4.54
2023-05-13T09:18:55.953Z,4.45
2023-05-13T09:20:27.433Z,4.46
2023-05-13T09:21:58.788Z,4.31
2023-05-13T09:23:30.151Z,4.25
2023-05-13T09:25:07.709Z,4.25
2023-05-13T09:26:39.098Z,4.40
2023-05-13T09:28:10.516Z,3.99
2023-05-13T09:29:41.907Z,4.25
2023-05-13T09:31:13.283Z,4.28
2023-05-13T09:32:45.006Z,4.17
2023-05-13T09:34:16.476Z,4.26
2023-05-13T09:35:47.867Z,4.45
2023-05-13T09:37:19.309Z,4.17
2023-05-13T09:38:50.658Z,3.94
2023-05-13T09:40:22.398Z,4.11
2023-05-13T09:41:54.202Z,3.93
2023-05-13T09:43:25.856Z,3.79
2023-05-13T09:44:57.348Z,4.02
2023-05-13T09:46:28.749Z,3.99
2023-05-13T09:48:00.435Z,4.36
2023-05-13T09:49:31.904Z,4.51
2023-05-13T09:51:03.278Z,4.42
2023-05-13T09:52:34.864Z,4.46
2023-05-13T09:54:06.318Z,4.12
2023-05-13T09:55:37.828Z,4.38
2023-05-13T09:57:09.176Z,4.90
2023-05-13T09:58:40.780Z,4.54
2023-05-13T10:01:53.254Z,4.80
2023-05-13T10:03:25.915Z,4.76
2023-05-13T10:04:57.548Z,4.42
2023-05-13T10:06:28.990Z,4.37
2023-05-13T10:08:00.395Z,4.06
2023-05-13T10:09:31.768Z,4.78
2023-05-13T10:11:03.198Z,4.75
2023-05-13T10:12:34.676Z,4.83
2023-05-13T10:14:06.056Z,4.68
2023-05-13T10:15:37.421Z,4.70
2023-05-13T10:17:08.822Z,4.70
2023-05-13T10:18:40.247Z,5.10
2023-05-13T10:20:11.647Z,4.66
2023-05-13T10:21:43.070Z,5.08
2023-05-13T10:23:14.480Z,5.13
2023-05-13T10:24:51.598Z,4.60
2023-05-13T10:26:23.086Z,4.82
2023-05-13T10:27:55.025Z,4.91
2023-05-13T10:29:26.562Z,4.75
2023-05-13T10:30:58.074Z,4.79
2023-05-13T10:32:29.473Z,5.03
2023-05-13T10:34:15.901Z,4.98
2023-05-13T10:36:08.361Z,5.22
2023-05-13T10:37:54.954Z,4.57
2023-05-13T10:39:50.204Z,4.40
2023-05-13T10:41:53.975Z,4.46
2023-05-13T10:43:25.560Z,4.25
2023-05-13T10:44:57.160Z,4.11
2023-05-13T10:46:41.478Z,4.36
2023-05-13T10:48:13.052Z,4.62
2023-05-13T10:49:44.485Z,4.15
2023-05-13T10:51:37.111Z,4.27
2023-05-13T10:53:13.505Z,4.44
2023-05-13T10:54:50.299Z,4.83
2023-05-13T10:56:22.404Z,4.39
2023-05-13T10:57:55.063Z,4.44
2023-05-13T10:59:47.664Z,4.22
2023-05-13T11:01:25.082Z,4.21
2023-05-13T11:03:11.864Z,4.26
2023-05-13T11:04:43.550Z,3.99
2023-05-13T11:06:15.160Z,4.04
2023-05-13T11:07:46.697Z,4.06
2023-05-13T11:09:18.255Z,4.50
2023-05-13T11:10:51.395Z,3.91
2023-05-13T11:12:22.832Z,3.98
2023-05-13T11:13:54.288Z,3.69
2023-05-13T11:15:25.727Z,4.16
2023-05-13T11:16:57.206Z,3.96
2023-05-13T11:18:28.890Z,3.70
2023-05-13T11:20:00.423Z,3.86
2023-05-13T11:21:31.882Z,3.95
2023-05-13T11:23:03.348Z,3.86
2023-05-13T11:24:34.931Z,3.60
2023-05-13T11:26:06.384Z,3.90
2023-05-13T11:27:37.888Z,4.40
2023-05-13T11:29:09.308Z,3.80
2023-05-13T11:30:40.848Z,3.88
2023-05-13T11:32:12.375Z,3.82
2023-05-13T11:33:43.864Z,3.67
2023-05-13T11:35:15.551Z,3.14
2023-05-13T11:36:47.097Z,3.36
2023-05-13T11:38:18.675Z,3.65
2023-05-13T11:39:50.377Z,3.25
2023-05-13T11:41:21.873Z,3.59
2023-05-13T11:42:53.388Z,3.65
2023-05-13T11:44:24.931Z,3.30
2023-05-13T11:45:56.515Z,3.50
2023-05-13T11:47:28.118Z,3.52
2023-05-13T11:48:59.761Z,3.51
2023-05-13T11:50:31.262Z,3.51
2023-05-13T11:52:02.848Z,3.54
2023-05-13T11:53:34.347Z,3.13
2023-05-13T11:55:07.139Z,3.05
2023-05-13T11:56:38.835Z,3.00
2023-05-13T11:58:10.334Z,3.28
2023-05-13T11:59:48.144Z,3.47
2023-05-13T12:01:19.887Z,2.86
2023-05-13T12:02:51.556Z,2.86
2023-05-13T12:04:23.245Z,2.90
2023-05-13T12:05:54.781Z,2.70
2023-05-13T12:07:26.297Z,3.11
2023-05-13T12:08:57.941Z,3.16
2023-05-13T12:10:29.550Z,3.13
2023-05-13T12:12:01.325Z,3.07
2023-05-13T12:13:32.867Z,2.91
2023-05-13T12:15:04.378Z,2.75
2023-05-13T12:16:35.911Z,2.77
2023-05-13T12:18:07.488Z,2.73
2023-05-13T12:19:39.230Z,2.87
2023-05-13T12:21:10.687Z,3.06
2023-05-13T12:22:42.252Z,3.23
2023-05-13T12:24:13.770Z,2.92
2023-05-13T12:25:45.498Z,2.78
2023-05-13T12:27:17.172Z,3.10
2023-05-13T12:28:48.707Z,3.25
2023-05-13T12:30:20.252Z,2.97
2023-05-13T12:31:51.953Z,2.97
2023-05-13T12:33:23.774Z,2.98
2023-05-13T12:34:55.452Z,2.65
2023-05-13T12:36:26.993Z,2.74
2023-05-13T12:37:58.544Z,2.67
2023-05-13T12:39:30.101Z,2.85
2023-05-13T12:41:01.636Z,2.80
2023-05-13T12:42:33.250Z,2.91
2023-05-13T12:44:04.739Z,2.97
2023-05-13T12:45:37.382Z,2.92
2023-05-13T12:47:11.077Z,2.91
2023-05-13T12:48:42.714Z,3.06
2023-05-13T12:50:14.471Z,2.99
2023-05-13T12:51:45.983Z,3.13
2023-05-13T12:53:17.895Z,3.04
2023-05-13T12:54:49.491Z,2.81
2023-05-13T12:56:21.228Z,3.06
2023-05-13T12:57:52.707Z,3.09
2023-05-13T12:59:24.512Z,2.97
2023-05-13T13:00:56.166Z,2.83
2023-05-13T13:02:27.829Z,3.02
2023-05-13T13:03:59.541Z,2.90
2023-05-13T13:05:31.791Z,2.69
2023-05-13T13:07:03.285Z,3.06
2023-05-13T13:08:34.835Z,2.87
2023-05-13T13:10:06.307Z,3.05
2023-05-13T13:11:37.953Z,3.12
2023-05-13T13:13:09.613Z,2.76
2023-05-13T13:14:41.167Z,3.00
2023-05-13T13:16:12.736Z,3.08
2023-05-13T13:17:44.771Z,2.92
2023-05-13T13:19:16.560Z,2.98
2023-05-13T13:20:48.255Z,3.00
2023-05-13T13:22:20.117Z,3.08
2023-05-13T13:23:51.653Z,2.64
2023-05-13T13:25:23.534Z,2.74
2023-05-13T13:26:56.616Z,2.63
2023-05-13T13:28:28.201Z,2.68
2023-05-13T13:29:59.722Z,2.70
2023-05-13T13:31:31.428Z,2.50
2023-05-13T13:33:03.135Z,2.78
2023-05-13T13:34:34.694Z,3.10
2023-05-13T13:36:06.392Z,2.93
2023-05-13T13:37:38.390Z,3.07
2023-05-13T13:39:10.100Z,2.72
2023-05-13T13:40:41.850Z,2.85
2023-05-13T13:42:13.364Z,2.63
2023-05-13T13:43:45.225Z,2.76
2023-05-13T13:45:16.911Z,2.83
2023-05-13T13:46:48.571Z,2.93
2023-05-13T13:48:20.105Z,2.77
2023-05-13T13:49:51.701Z,2.73
2023-05-13T13:51:23.252Z,2.78
2023-05-13T13:52:54.910Z,2.42
2023-05-13T13:54:26.445Z,2.57
2023-05-13T13:55:58.024Z,2.62
2023-05-13T13:57:29.515Z,2.87
2023-05-13T13:59:01.074Z,2.80
2023-05-13T14:00:37.781Z,2.98
2023-05-13T14:02:09.266Z,2.89
2023-05-13T14:03:40.905Z,2.49
2023-05-13T14:05:12.701Z,2.42
2023-05-13T14:06:44.581Z,2.58
2023-05-13T14:08:16.091Z,2.63
2023-05-13T14:09:47.640Z,2.73
2023-05-13T14:11:19.285Z,2.51
2023-05-13T14:12:50.802Z,2.56
2023-05-13T14:14:22.282Z,2.45
2023-05-13T14:15:53.910Z,2.45
2023-05-13T14:17:25.605Z,2.65
2023-05-13T14:18:57.398Z,2.77
2023-05-13T14:20:31.940Z,2.68
2023-05-13T14:22:03.808Z,2.59
2023-05-13T14:23:35.493Z,2.38
2023-05-13T14:25:06.956Z,2.64
2023-05-13T14:26:38.363Z,2.85
2023-05-13T14:28:09.902Z,2.59
2023-05-13T14:29:41.611Z,2.70
2023-05-13T14:31:13.058Z,2.64
2023-05-13T14:32:44.553Z,2.86
2023-05-13T14:34:16.153Z,2.90
2023-05-13T14:35:47.632Z,3.08
2023-05-13T14:37:19.035Z,2.85
2023-05-13T14:38:50.451Z,2.45
2023-05-13T14:40:26.850Z,1.70
2023-05-13T14:42:24.805Z,2.06
2023-05-13T14:43:56.507Z,2.18
2023-05-13T14:45:28.232Z,2.40
2023-05-13T14:46:59.843Z,2.32
2023-05-13T14:48:36.479Z,2.99
2023-05-13T14:50:08.108Z,2.73
2023-05-13T14:51:39.796Z,2.28
2023-05-13T14:53:11.414Z,2.33
2023-05-13T14:54:42.909Z,2.42
2023-05-13T14:56:14.466Z,2.55
2023-05-13T14:57:46.229Z,2.83
2023-05-13T14:59:17.603Z,3.17
2023-05-13T15:00:49.252Z,3.37
2023-05-13T15:02:21.018Z,3.10
2023-05-13T15:03:52.699Z,2.90
2023-05-13T15:05:58.634Z,3.02
2023-05-13T15:07:30.322Z,3.30
2023-05-13T15:09:03.548Z,3.09
2023-05-13T15:10:35.196Z,2.82
2023-05-13T15:12:07.036Z,2.73
2023-05-13T15:13:38.638Z,2.75
2023-05-13T15:15:10.102Z,3.02
2023-05-13T15:16:41.573Z,2.77
2023-05-13T15:18:13.056Z,2.75
2023-05-13T15:19:44.612Z,2.96
2023-05-13T15:21:16.065Z,3.06
2023-05-13T15:22:47.749Z,2.87
2023-05-13T15:24:19.462Z,2.88
2023-05-13T15:25:50.914Z,2.97
2023-05-13T15:27:23.009Z,2.82
2023-05-13T15:28:54.835Z,2.92
2023-05-13T15:30:26.771Z,2.70
2023-05-13T15:31:58.602Z,2.69
2023-05-13T15:33:30.213Z,2.76
2023-05-13T15:35:01.880Z,2.71
2023-05-13T15:36:33.369Z,2.57
2023-05-13T15:38:09.889Z,2.36
2023-05-13T15:39:46.581Z,2.47
2023-05-13T15:41:28.479Z,2.41
2023-05-13T15:43:00.205Z,2.47
2023-05-13T15:44:31.653Z,2.50
2023-05-13T15:46:03.376Z,2.29
2023-05-13T15:47:35.262Z,2.38
2023-05-13T15:49:06.959Z,2.31
2023-05-13T15:50:38.607Z,2.20
2023-05-13T15:52:10.885Z,2.25
2023-05-13T15:53:42.424Z,2.17
2023-05-13T15:55:13.925Z,1.97
2023-05-13T15:56:45.438Z,2.07
2023-05-13T15:58:17.222Z,2.06
2023-05-13T15:59:48.757Z,1.99
2023-05-13T16:01:20.316Z,2.17
2023-05-13T16:02:52.040Z,2.07
2023-05-13T16:04:23.763Z,2.07
2023-05-13T16:05:55.407Z,2.13
2023-05-13T16:07:26.950Z,2.14
2023-05-13T16:08:58.532Z,2.37
2023-05-13T16:10:30.214Z,2.10
2023-05-13T16:12:01.862Z,1.98
2023-05-13T16:13:48.782Z,2.30
2023-05-13T16:17:17.555Z,2.20
2023-05-13T16:19:23.621Z,2.05
2023-05-13T16:20:55.351Z,2.15
2023-05-13T16:22:56.873Z,2.14
2023-05-13T16:24:33.972Z,2.17
2023-05-13T16:26:05.551Z,1.98
2023-05-13T16:27:55.054Z,2.17
2023-05-13T16:29:32.894Z,2.12
2023-05-13T16:31:04.611Z,2.32
2023-05-13T16:32:36.824Z,2.14
2023-05-13T16:34:47.875Z,2.14
2023-05-13T16:36:19.994Z,2.10
2023-05-13T16:37:51.929Z,2.18
2023-05-13T16:40:00.311Z,2.20
2023-05-13T16:41:37.787Z,2.22
2023-05-13T16:43:24.420Z,2.20
2023-05-13T16:44:56.359Z,2.27
2023-05-13T16:46:57.919Z,2.27
2023-05-13T16:48:30.149Z,2.14
2023-05-13T16:50:01.903Z,2.13
2023-05-13T16:51:33.517Z,2.42
2023-05-13T16:53:05.232Z,2.28
2023-05-13T16:54:36.842Z,2.45
2023-05-13T16:56:08.592Z,2.41
2023-05-13T16:57:50.352Z,2.52
2023-05-13T16:59:27.162Z,2.58
2023-05-13T17:00:59.484Z,2.64
2023-05-13T17:02:31.378Z,2.30
2023-05-13T17:04:08.203Z,2.38
2023-05-13T17:05:39.856Z,2.32
2023-05-13T17:07:11.383Z,2.27
2023-05-13T17:08:42.918Z,2.55
2023-05-13T17:10:14.944Z,2.33
2023-05-13T17:11:46.946Z,2.45
2023-05-13T17:13:18.708Z,2.29
2023-05-13T17:15:10.211Z,2.36
2023-05-13T17:16:41.909Z,2.25
2023-05-13T17:18:13.709Z,2.39
2023-05-13T17:19:45.321Z,2.50
2023-05-13T17:21:28.685Z,2.40
2023-05-13T17:23:00.236Z,2.37
2023-05-13T17:24:31.809Z,2.39
2023-05-13T17:26:03.652Z,2.59
2023-05-13T17:27:36.409Z,2.37
2023-05-13T17:29:07.917Z,2.38
2023-05-13T17:30:40.737Z,2.39
2023-05-13T17:32:12.391Z,2.31
2023-05-13T17:33:45.860Z,2.40
2023-05-13T17:35:17.784Z,2.41
2023-05-13T17:36:50.267Z,2.47
2023-05-13T17:38:37.290Z,2.49
2023-05-13T17:40:10.351Z,2.39
2023-05-13T17:41:42.232Z,2.38
2023-05-13T17:43:13.654Z,2.40
2023-05-13T17:45:20.061Z,2.64
2023-05-13T17:46:56.695Z,4.96
2023-05-13T17:48:28.815Z,4.77
2023-05-13T17:50:00.762Z,4.96
2023-05-13T17:51:46.461Z,6.32
2023-05-13T17:53:39.783Z,3.77
2023-05-13T17:55:12.863Z,3.40
2023-05-13T17:56:44.616Z,4.24
2023-05-13T17:58:16.404Z,5.22
2023-05-13T18:00:03.946Z,5.95
2023-05-13T18:01:36.736Z,4.94
2023-05-13T18:03:09.068Z,3.53
2023-05-13T18:04:40.905Z,2.93
2023-05-13T18:06:12.620Z,2.84
2023-05-13T18:07:44.152Z,3.07
2023-05-13T18:09:17.279Z,2.76
2023-05-13T18:10:54.392Z,3.01
2023-05-13T18:12:26.675Z,3.09
2023-05-13T18:13:58.533Z,2.97
2023-05-13T18:15:30.506Z,2.87
2023-05-13T18:17:02.650Z,3.20
2023-05-13T18:18:34.772Z,2.99
2023-05-13T18:20:06.380Z,2.66
2023-05-13T18:21:43.256Z,2.86
2023-05-13T18:23:14.942Z,2.97
2023-05-13T18:24:46.587Z,2.82
2023-05-13T18:26:18.066Z,3.02
2023-05-13T18:27:50.857Z,2.95
2023-05-13T18:29:22.315Z,3.77
2023-05-13T18:31:08.672Z,3.61
2023-05-13T18:32:40.250Z,2.68
2023-05-13T18:34:11.691Z,3.01
2023-05-13T18:35:43.129Z,2.94
2023-05-13T18:37:14.545Z,2.74
2023-05-13T18:38:46.007Z,2.87
2023-05-13T18:40:17.655Z,2.73
2023-05-13T18:41:49.079Z,3.04
2023-05-13T18:43:20.486Z,2.96
2023-05-13T18:44:52.452Z,2.73
2023-05-13T18:46:24.983Z,3.00
2023-05-13T18:47:56.919Z,3.48
2023-05-13T18:49:28.424Z,3.30
2023-05-13T18:51:00.215Z,3.53
2023-05-13T18:52:32.215Z,3.33
2023-05-13T18:54:03.768Z,3.51
2023-05-13T18:55:35.271Z,3.38
2023-05-13T18:57:06.648Z,3.67
2023-05-13T18:58:38.488Z,3.15
2023-05-13T19:00:10.160Z,3.12
2023-05-13T19:01:41.901Z,3.41
2023-05-13T19:03:13.709Z,3.73
2023-05-13T19:04:45.173Z,3.73
2023-05-13T19:06:16.638Z,3.16
2023-05-13T19:07:48.082Z,3.53
2023-05-13T19:09:19.558Z,3.56
2023-05-13T19:10:50.912Z,3.34
2023-05-13T19:12:22.745Z,3.38
2023-05-13T19:13:54.293Z,3.59
2023-05-13T19:15:25.829Z,3.46
2023-05-13T19:16:57.312Z,3.58
2023-05-13T19:18:29.038Z,3.56
2023-05-13T19:20:02.008Z,3.76
2023-05-13T19:21:33.466Z,3.59
2023-05-13T19:23:04.940Z,3.57
2023-05-13T19:24:36.605Z,4.02
2023-05-13T19:26:08.007Z,3.89
2023-05-13T19:27:40.017Z,4.22
2023-05-13T19:29:37.858Z,4.15
2023-05-13T19:31:09.218Z,4.54
2023-05-13T19:32:41.966Z,4.43
2023-05-13T19:34:13.376Z,4.52
2023-05-13T19:35:44.996Z,4.32
2023-05-13T19:37:16.450Z,4.76
2023-05-13T19:38:47.947Z,4.76
2023-05-13T19:40:19.466Z,4.70
2023-05-13T19:41:51.164Z,4.96
2023-05-13T19:43:22.699Z,4.58
2023-05-13T19:44:54.279Z,4.82
2023-05-13T19:46:25.929Z,4.91
2023-05-13T19:47:57.448Z,4.53
2023-05-13T19:49:29.360Z,4.62
2023-05-13T19:51:00.979Z,4.32
2023-05-13T19:52:32.371Z,4.74
2023-05-13T19:54:04.158Z,4.48
2023-05-13T19:55:36.077Z,4.55
2023-05-13T19:57:07.923Z,4.71
2023-05-13T19:58:39.713Z,5.04
2023-05-13T20:00:11.088Z,4.71
2023-05-13T20:01:42.660Z,4.84
2023-05-13T20:03:14.398Z,4.89
2023-05-13T20:04:46.147Z,4.94
2023-05-13T20:06:17.740Z,4.91
2023-05-13T20:07:49.660Z,4.60
2023-05-13T20:09:21.174Z,4.47
2023-05-13T20:10:57.842Z,4.44
2023-05-13T20:12:29.941Z,5.08
2023-05-13T20:14:01.760Z,5.10
2023-05-13T20:15:34.310Z,12.47
2023-05-13T20:17:05.854Z,14.36
2023-05-13T20:18:42.665Z,17.01
2023-05-13T20:20:15.402Z,14.15
2023-05-13T20:21:47.243Z,11.48